Time;durP1;ratioP1;P1;durP2;ratioP2;P2;SDS_P1;SDS_P2;PMS_P1;PMS_P2;Temp;Humidity;BMP_temperature;BMP_pressure;BME280_temperature;BME280_humidity;BME280_pressure;Samples;Min_cycle;Max_cycle;Signal;HPM_P1;HPM_P2
2023/04/03 00:00:16;;;;;;;0.75;0.30;;;3.10;99.90;;;;;;4974616;28;20095;-80
2023/04/03 00:02:41;;;;;;;2.25;0.50;;;3.10;99.90;;;;;;4956972;28;20539;-81
2023/04/03 00:05:07;;;;;;;3.03;0.30;;;3.40;99.90;;;;;;4958127;28;20070;-79
2023/04/03 00:07:33;;;;;;;1.02;0.30;;;3.00;99.90;;;;;;4957242;28;20049;-80
2023/04/03 00:09:59;;;;;;;1.50;0.40;;;3.70;99.90;;;;;;4974348;28;20081;-80
2023/04/03 00:12:25;;;;;;;0.95;0.40;;;2.90;99.90;;;;;;4941359;28;20481;-80
2023/04/03 00:14:50;;;;;;;1.05;0.30;;;3.20;99.90;;;;;;4976908;28;20042;-80
2023/04/03 00:17:16;;;;;;;0.60;0.30;;;4.00;99.90;;;;;;4977741;28;20436;-80
2023/04/03 00:19:42;;;;;;;2.00;0.40;;;3.30;99.90;;;;;;4978223;28;20042;-81
2023/04/03 00:22:07;;;;;;;0.47;0.30;;;3.30;99.90;;;;;;4977662;28;20059;-80
2023/04/03 00:24:33;;;;;;;1.67;0.40;;;3.00;99.90;;;;;;4928796;28;20096;-80
2023/04/03 00:26:59;;;;;;;1.67;0.40;;;3.20;99.90;;;;;;4960770;28;20057;-80
2023/04/03 00:29:24;;;;;;;0.90;0.22;;;3.20;99.90;;;;;;4978098;28;20043;-80
2023/04/03 00:31:50;;;;;;;3.13;0.40;;;3.40;99.90;;;;;;4977675;28;20471;-80
2023/04/03 00:34:16;;;;;;;1.00;0.40;;;3.80;99.90;;;;;;4944212;28;20050;-80
2023/04/03 00:36:41;;;;;;;2.22;0.40;;;3.70;99.90;;;;;;4944467;28;20062;-81
2023/04/03 00:39:07;;;;;;;1.58;0.38;;;3.30;99.90;;;;;;4960573;28;20043;-80
2023/04/03 00:41:33;;;;;;;1.27;0.70;;;3.60;99.90;;;;;;4960041;28;20480;-80
2023/04/03 00:43:59;;;;;;;1.17;0.35;;;3.80;99.90;;;;;;4978157;28;20046;-80
2023/04/03 00:46:25;;;;;;;1.50;0.30;;;3.20;99.90;;;;;;4943900;28;20480;-80
2023/04/03 00:48:51;;;;;;;1.92;0.30;;;2.70;99.90;;;;;;4977544;28;20078;-80
2023/04/03 00:51:23;;;;;;;2.05;0.50;;;3.10;99.90;;;;;;4977090;28;20061;-80
2023/04/03 00:53:58;;;;;;;1.85;0.50;;;3.70;99.90;;;;;;4977057;28;20082;-80
2023/04/03 00:56:26;;;;;;;2.38;0.40;;;3.50;99.90;;;;;;4960746;28;20058;-80
2023/04/03 00:59:01;;;;;;;3.00;0.47;;;3.50;99.90;;;;;;4977016;28;20055;-80
2023/04/03 01:01:28;;;;;;;3.00;0.40;;;2.60;99.90;;;;;;4960154;28;20118;-80
2023/04/03 01:03:55;;;;;;;1.38;0.50;;;3.40;99.90;;;;;;4959900;28;20049;-80
2023/04/03 01:06:26;;;;;;;0.98;0.32;;;3.40;99.90;;;;;;4976847;28;20069;-80
2023/04/03 01:08:52;;;;;;;2.25;0.50;;;2.60;99.90;;;;;;4960337;28;20047;-80
2023/04/03 01:11:18;;;;;;;2.95;0.90;;;2.60;99.90;;;;;;4977564;28;20059;-80
2023/04/03 01:13:44;;;;;;;1.83;0.40;;;2.60;99.90;;;;;;4977329;28;20367;-80
2023/04/03 01:16:10;;;;;;;2.97;0.70;;;2.90;99.90;;;;;;4959893;28;20051;-80
2023/04/03 01:18:39;;;;;;;1.65;0.40;;;3.30;99.90;;;;;;4976936;28;20101;-81
2023/04/03 01:21:16;;;;;;;2.78;0.70;;;2.80;99.90;;;;;;4978426;28;20055;-80
2023/04/03 01:23:51;;;;;;;0.88;0.43;;;2.70;99.90;;;;;;4961163;28;20054;-80
2023/04/03 01:26:17;;;;;;;1.95;0.50;;;2.40;99.90;;;;;;4963030;28;20389;-80
2023/04/03 01:28:42;;;;;;;2.00;0.50;;;3.10;99.90;;;;;;4969097;28;20046;-80
2023/04/03 01:31:29;;;;;;;2.70;0.60;;;2.30;99.90;;;;;;4985118;28;20560;-80
2023/04/03 01:33:55;;;;;;;2.78;0.60;;;2.40;99.90;;;;;;4978237;28;20121;-81
2023/04/03 01:36:24;;;;;;;2.45;0.60;;;3.10;99.90;;;;;;4959256;28;20125;-80
2023/04/03 01:38:51;;;;;;;1.90;0.55;;;2.60;99.90;;;;;;4976323;28;20054;-81
2023/04/03 01:41:17;;;;;;;5.13;0.65;;;2.90;99.90;;;;;;4975848;28;20412;-80
2023/04/03 01:43:43;;;;;;;3.13;0.80;;;3.00;99.90;;;;;;4976248;28;20053;-80
2023/04/03 01:46:09;;;;;;;1.40;0.60;;;3.10;99.90;;;;;;4959158;28;20047;-80
2023/04/03 01:48:34;;;;;;;2.85;0.60;;;2.50;99.90;;;;;;4976026;28;20498;-80
2023/04/03 01:51:00;;;;;;;2.55;0.50;;;2.80;99.90;;;;;;4958776;28;20042;-80
2023/04/03 01:53:26;;;;;;;3.40;0.60;;;3.10;99.90;;;;;;4958431;28;20065;-81
2023/04/03 01:55:52;;;;;;;4.05;0.50;;;2.80;99.90;;;;;;4943834;28;20133;-80
2023/04/03 01:58:18;;;;;;;2.83;0.50;;;2.30;99.90;;;;;;4958988;28;20409;-80
2023/04/03 02:00:43;;;;;;;1.40;0.40;;;3.40;99.90;;;;;;4959958;28;20053;-81
2023/04/03 02:03:09;;;;;;;1.67;0.47;;;2.90;99.90;;;;;;4977555;28;20078;-80
2023/04/03 02:05:35;;;;;;;4.05;0.80;;;2.40;99.90;;;;;;4979925;28;20043;-80
2023/04/03 02:08:01;;;;;;;2.08;0.73;;;3.20;99.90;;;;;;4985345;28;20100;-80
2023/04/03 02:10:27;;;;;;;1.52;0.70;;;2.60;99.90;;;;;;4984350;28;20057;-80
2023/04/03 02:12:52;;;;;;;2.50;0.70;;;2.20;99.90;;;;;;4960146;28;20384;-80
2023/04/03 02:15:18;;;;;;;3.70;0.93;;;2.50;99.90;;;;;;4976424;28;20054;-80
2023/04/03 02:17:44;;;;;;;2.72;0.63;;;2.90;99.90;;;;;;4975668;28;20082;-80
2023/04/03 02:20:10;;;;;;;3.08;0.77;;;2.90;99.90;;;;;;4958450;28;20061;-80
2023/04/03 02:22:36;;;;;;;2.17;0.90;;;2.20;99.90;;;;;;4976204;28;20078;-80
2023/04/03 02:25:02;;;;;;;3.67;0.60;;;2.70;99.90;;;;;;4975500;28;20039;-80
2023/04/03 02:27:27;;;;;;;6.45;1.02;;;2.40;99.90;;;;;;4959093;28;20051;-80
2023/04/03 02:29:53;;;;;;;4.45;0.80;;;2.10;99.90;;;;;;4975313;28;20404;-81
2023/04/03 02:32:19;;;;;;;1.77;0.80;;;2.70;99.90;;;;;;4976177;28;20051;-81
2023/04/03 02:34:44;;;;;;;2.38;0.90;;;2.70;99.90;;;;;;4976068;28;20476;-81
2023/04/03 02:37:10;;;;;;;2.88;0.80;;;2.50;99.90;;;;;;4975949;28;20086;-81
2023/04/03 02:39:36;;;;;;;1.88;0.57;;;2.20;99.90;;;;;;4975297;28;20047;-81
2023/04/03 02:42:02;;;;;;;1.95;0.60;;;3.20;99.90;;;;;;4958291;28;20373;-81
2023/04/03 02:44:28;;;;;;;4.25;0.60;;;2.00;99.90;;;;;;4976110;28;20054;-81
2023/04/03 02:46:54;;;;;;;1.88;0.70;;;1.90;99.90;;;;;;4976437;28;20125;-81
2023/04/03 02:49:19;;;;;;;2.88;0.82;;;2.20;99.90;;;;;;4959031;28;20054;-80
2023/04/03 02:51:45;;;;;;;2.47;0.70;;;2.00;99.90;;;;;;4977450;28;20484;-80
2023/04/03 02:54:11;;;;;;;2.88;0.70;;;2.30;99.90;;;;;;4976316;28;20062;-80
2023/04/03 02:56:37;;;;;;;2.85;0.70;;;3.00;99.90;;;;;;4958403;28;20047;-80
2023/04/03 02:59:03;;;;;;;2.67;0.60;;;1.70;99.90;;;;;;4942231;28;20047;-80
2023/04/03 03:01:31;;;;;;;4.40;0.90;;;2.30;99.90;;;;;;4958671;28;20043;-81
2023/04/03 03:03:57;;;;;;;2.70;0.80;;;2.30;99.90;;;;;;4974915;28;20061;-81
2023/04/03 03:06:23;;;;;;;2.10;0.80;;;1.80;99.90;;;;;;4974840;28;20090;-80
2023/04/03 03:08:49;;;;;;;3.92;0.70;;;2.00;99.90;;;;;;4974905;28;20101;-80
2023/04/03 03:11:15;;;;;;;2.67;0.80;;;2.30;99.90;;;;;;4974838;28;20054;-80
2023/04/03 03:13:41;;;;;;;5.43;0.88;;;2.00;99.90;;;;;;4974758;28;20093;-81
2023/04/03 03:16:07;;;;;;;3.15;0.77;;;1.70;99.90;;;;;;4974976;28;20094;-80
2023/04/03 03:18:33;;;;;;;2.55;0.70;;;1.70;99.90;;;;;;4957719;28;20489;-81
2023/04/03 03:21:00;;;;;;;2.95;0.70;;;2.30;99.90;;;;;;4957348;28;20051;-80
2023/04/03 03:23:28;;;;;;;3.63;0.85;;;1.80;99.90;;;;;;4975393;28;20374;-80
2023/04/03 03:25:56;;;;;;;4.25;1.25;;;2.60;99.90;;;;;;4975169;28;20133;-81
2023/04/03 03:28:22;;;;;;;3.22;0.90;;;2.20;99.90;;;;;;4974644;28;20501;-80
2023/04/03 03:30:47;;;;;;;2.03;0.70;;;2.30;99.90;;;;;;4974311;28;20090;-80
2023/04/03 03:33:13;;;;;;;2.28;0.70;;;1.90;99.90;;;;;;4974793;28;20074;-81
2023/04/03 03:35:40;;;;;;;2.90;1.02;;;1.70;99.90;;;;;;4941222;28;20051;-81
2023/04/03 03:38:05;;;;;;;1.85;0.85;;;1.60;99.90;;;;;;4957785;28;20047;-80
2023/04/03 03:40:31;;;;;;;4.05;1.25;;;1.90;99.90;;;;;;4975259;28;20047;-80
2023/04/03 03:42:56;;;;;;;3.08;0.95;;;2.00;99.90;;;;;;4974354;28;20043;-80
2023/04/03 03:45:22;;;;;;;2.38;0.80;;;1.60;99.90;;;;;;4957460;28;20051;-80
2023/04/03 03:47:48;;;;;;;5.07;1.15;;;1.50;99.90;;;;;;4957467;28;20043;-80
2023/04/03 03:50:14;;;;;;;4.20;0.80;;;1.80;99.90;;;;;;4977913;28;20145;-80
2023/04/03 03:52:40;;;;;;;3.35;0.80;;;1.30;99.90;;;;;;4978741;28;20098;-80
2023/04/03 03:55:06;;;;;;;4.35;1.20;;;1.60;99.90;;;;;;4960898;28;20066;-80
2023/04/03 03:57:32;;;;;;;4.45;0.80;;;1.30;99.90;;;;;;4978525;28;20057;-80
2023/04/03 03:59:57;;;;;;;3.65;0.80;;;1.40;99.90;;;;;;4978061;28;20122;-80
2023/04/03 04:02:23;;;;;;;2.45;1.10;;;1.30;99.90;;;;;;4960725;28;20166;-80
2023/04/03 04:04:49;;;;;;;3.30;0.90;;;1.30;99.90;;;;;;4961025;28;20050;-81
2023/04/03 04:07:15;;;;;;;3.17;1.08;;;1.50;99.90;;;;;;4944915;28;20082;-80
2023/04/03 04:09:40;;;;;;;3.05;1.08;;;1.60;99.90;;;;;;4978185;28;20058;-80
2023/04/03 04:12:06;;;;;;;4.13;1.00;;;2.40;99.90;;;;;;4978429;28;20055;-80
2023/04/03 04:14:32;;;;;;;3.92;1.00;;;1.30;99.90;;;;;;4961008;28;20039;-80
2023/04/03 04:16:58;;;;;;;2.78;1.15;;;2.00;99.90;;;;;;4944750;28;20090;-80
2023/04/03 04:19:23;;;;;;;4.30;1.00;;;1.60;99.90;;;;;;4977981;28;20054;-80
2023/04/03 04:21:50;;;;;;;4.55;0.90;;;2.20;99.90;;;;;;4960823;28;20405;-80
2023/04/03 04:24:15;;;;;;;3.22;1.10;;;1.30;99.90;;;;;;4977592;28;20051;-80
2023/04/03 04:26:41;;;;;;;3.28;1.30;;;2.30;99.90;;;;;;4960509;28;20504;-80
2023/04/03 04:29:09;;;;;;;2.92;0.98;;;2.20;99.90;;;;;;4959982;28;20520;-80
2023/04/03 04:31:34;;;;;;;4.00;0.80;;;1.40;99.90;;;;;;4978308;28;20053;-80
2023/04/03 04:34:00;;;;;;;4.75;0.90;;;2.00;99.90;;;;;;4977511;28;20445;-80
2023/04/03 04:36:26;;;;;;;2.28;0.65;;;1.80;99.90;;;;;;4960392;28;20050;-80
2023/04/03 04:38:52;;;;;;;4.88;0.95;;;1.70;99.90;;;;;;4978034;28;20055;-80
2023/04/03 04:41:22;;;;;;;4.95;0.90;;;2.10;99.90;;;;;;4977566;28;20077;-80
2023/04/03 04:43:49;;;;;;;4.22;1.55;;;1.40;99.90;;;;;;4977347;28;20047;-81
2023/04/03 04:46:15;;;;;;;2.65;0.90;;;1.60;99.90;;;;;;4977785;28;20121;-80
2023/04/03 04:48:41;;;;;;;4.63;1.50;;;1.10;99.90;;;;;;4977753;28;20488;-80
2023/04/03 04:51:07;;;;;;;2.60;0.77;;;1.50;99.90;;;;;;4977189;28;20042;-79
2023/04/03 04:53:32;;;;;;;5.30;1.00;;;1.30;99.90;;;;;;4977791;28;20138;-80
2023/04/03 04:55:58;;;;;;;3.70;1.30;;;2.10;99.90;;;;;;4977648;28;20133;-80
2023/04/03 04:58:25;;;;;;;2.20;0.80;;;1.90;99.90;;;;;;4977323;28;20058;-80
2023/04/03 05:01:05;;;;;;;3.83;0.98;;;1.80;99.90;;;;;;4975917;28;20057;-80
2023/04/03 05:03:31;;;;;;;3.78;1.00;;;1.00;99.90;;;;;;4976921;28;20560;-79
2023/04/03 05:05:57;;;;;;;2.38;0.85;;;1.30;99.90;;;;;;4960571;28;20054;-80
2023/04/03 05:08:22;;;;;;;3.38;0.90;;;1.90;99.90;;;;;;4960025;28;20073;-80
2023/04/03 05:10:48;;;;;;;3.17;1.30;;;2.90;99.90;;;;;;4976811;28;20063;-80
2023/04/03 05:13:14;;;;;;;4.82;1.30;;;1.90;99.90;;;;;;4959528;28;20050;-80
2023/04/03 05:15:40;;;;;;;4.18;1.20;;;1.60;99.90;;;;;;4943676;28;20039;-80
2023/04/03 05:18:06;;;;;;;2.58;0.98;;;1.20;99.90;;;;;;4977283;28;20059;-79
2023/04/03 05:20:32;;;;;;;2.65;1.27;;;0.90;99.90;;;;;;4976679;28;20186;-80
2023/04/03 05:22:58;;;;;;;5.70;1.10;;;1.00;99.90;;;;;;4959403;28;20140;-79
2023/04/03 05:25:24;;;;;;;2.90;0.93;;;1.00;99.90;;;;;;4976956;28;20091;-79
2023/04/03 05:27:50;;;;;;;4.10;1.10;;;0.90;99.90;;;;;;4976450;28;20042;-79
2023/04/03 05:30:16;;;;;;;4.07;1.63;;;1.10;99.90;;;;;;4976439;28;20133;-79
2023/04/03 05:32:42;;;;;;;6.88;0.90;;;0.90;99.90;;;;;;4976442;28;20042;-79
2023/04/03 05:35:09;;;;;;;5.65;1.67;;;1.10;99.90;;;;;;4976315;28;20047;-79
2023/04/03 05:37:35;;;;;;;5.65;1.23;;;1.00;99.90;;;;;;4977088;28;20051;-79
2023/04/03 05:40:02;;;;;;;3.55;1.45;;;2.00;99.90;;;;;;4976294;28;20077;-79
2023/04/03 05:42:27;;;;;;;4.10;0.95;;;1.20;99.90;;;;;;4976084;28;20481;-79
2023/04/03 05:44:53;;;;;;;5.30;1.00;;;1.50;99.90;;;;;;4975889;28;20046;-79
2023/04/03 05:47:19;;;;;;;3.70;1.23;;;1.60;99.90;;;;;;4976354;28;20058;-79
2023/04/03 05:49:45;;;;;;;3.95;1.27;;;1.70;99.90;;;;;;4959035;28;20082;-79
2023/04/03 05:52:23;;;;;;;4.00;1.40;;;1.70;99.90;;;;;;4976262;28;20481;-79
2023/04/03 05:54:49;;;;;;;5.43;1.42;;;1.50;99.90;;;;;;4976138;28;20058;-79
2023/04/03 05:57:18;;;;;;;3.05;1.30;;;1.70;99.90;;;;;;4975885;28;20377;-79
2023/04/03 05:59:46;;;;;;;3.05;1.40;;;1.40;99.90;;;;;;4975943;28;20050;-79
2023/04/03 06:02:14;;;;;;;3.20;1.30;;;1.10;99.90;;;;;;4975798;28;20043;-80
2023/04/03 06:04:40;;;;;;;5.13;1.30;;;1.80;99.90;;;;;;4975836;28;20050;-79
2023/04/03 06:07:07;;;;;;;6.10;1.70;;;2.20;99.90;;;;;;4959525;28;20054;-79
2023/04/03 06:09:33;;;;;;;7.15;1.70;;;2.10;99.90;;;;;;4958669;28;20373;-79
2023/04/03 06:11:59;;;;;;;5.10;1.70;;;1.40;99.90;;;;;;4958163;28;20126;-79
2023/04/03 06:14:25;;;;;;;4.22;1.45;;;1.80;99.90;;;;;;4975627;28;20051;-79
2023/04/03 06:16:52;;;;;;;5.32;1.63;;;1.30;99.90;;;;;;4975641;28;20401;-79
2023/04/03 06:19:18;;;;;;;4.45;1.10;;;1.50;99.90;;;;;;4976156;28;20082;-79
2023/04/03 06:21:43;;;;;;;4.95;0.90;;;1.60;99.90;;;;;;4975476;28;20082;-79
2023/04/03 06:24:12;;;;;;;2.30;1.00;;;2.00;99.90;;;;;;4975509;28;20105;-79
2023/04/03 06:26:38;;;;;;;4.70;1.00;;;2.60;99.90;;;;;;4975499;28;20046;-77
2023/04/03 06:29:04;;;;;;;2.45;1.10;;;2.40;99.90;;;;;;4958393;28;20049;-79
2023/04/03 06:31:30;;;;;;;3.55;1.50;;;1.60;99.90;;;;;;4976592;28;20046;-79
2023/04/03 06:33:56;;;;;;;4.43;1.35;;;1.60;99.90;;;;;;4960189;28;20046;-79
2023/04/03 06:36:22;;;;;;;7.55;1.45;;;2.50;99.90;;;;;;4984403;28;20113;-79
2023/04/03 06:38:48;;;;;;;4.10;1.27;;;1.70;99.90;;;;;;4968899;28;20063;-79
2023/04/03 06:41:16;;;;;;;4.05;1.27;;;2.10;99.90;;;;;;4977921;28;20043;-79
2023/04/03 06:43:42;;;;;;;5.03;1.17;;;2.20;99.90;;;;;;4958131;28;20051;-79
2023/04/03 06:46:16;;;;;;;3.75;0.98;;;2.50;99.90;;;;;;4958878;28;20051;-79
2023/04/03 06:48:42;;;;;;;4.05;1.42;;;2.70;99.90;;;;;;4958208;28;20043;-80
2023/04/03 06:51:22;;;;;;;3.47;1.15;;;1.90;99.90;;;;;;4975569;28;20047;-79
2023/04/03 06:53:50;;;;;;;2.85;1.30;;;1.80;99.90;;;;;;4976548;28;20101;-79
2023/04/03 06:56:16;;;;;;;2.25;0.98;;;2.30;99.90;;;;;;4958766;28;20054;-79
2023/04/03 06:58:42;;;;;;;5.35;1.05;;;2.20;99.90;;;;;;4975044;28;20401;-79
2023/04/03 07:01:09;;;;;;;4.72;1.00;;;2.80;99.90;;;;;;4974976;28;20058;-79
2023/04/03 07:03:36;;;;;;;4.05;1.50;;;2.40;99.90;;;;;;4975162;28;20039;-79
2023/04/03 07:06:03;;;;;;;2.55;0.90;;;2.10;99.90;;;;;;4975328;28;20046;-79
2023/04/03 07:08:29;;;;;;;2.95;0.93;;;2.10;99.90;;;;;;4976081;28;20046;-80
2023/04/03 07:10:55;;;;;;;2.72;1.10;;;2.50;99.90;;;;;;4980616;28;20489;-79
2023/04/03 07:13:21;;;;;;;3.72;1.35;;;2.30;99.90;;;;;;4981834;28;20130;-79
2023/04/03 07:15:46;;;;;;;4.28;1.35;;;2.60;99.90;;;;;;4958584;28;20051;-79
2023/04/03 07:18:12;;;;;;;6.05;1.38;;;2.20;99.90;;;;;;4958424;28;20150;-79
2023/04/03 07:20:38;;;;;;;3.40;1.00;;;2.30;99.90;;;;;;4974698;28;20438;-80
2023/04/03 07:23:04;;;;;;;7.20;1.50;;;2.50;99.90;;;;;;4974587;28;20043;-81
2023/04/03 07:25:31;;;;;;;4.03;1.00;;;2.90;99.90;;;;;;4978607;28;20074;-80
2023/04/03 07:27:57;;;;;;;7.30;1.42;;;2.50;99.90;;;;;;4978696;28;20097;-79
2023/04/03 07:30:23;;;;;;;3.58;1.20;;;3.10;99.90;;;;;;4978600;28;20043;-80
2023/04/03 07:32:49;;;;;;;4.90;1.42;;;2.90;99.90;;;;;;4978272;28;20559;-83
2023/04/03 07:35:16;;;;;;;3.42;0.98;;;3.00;99.90;;;;;;4979178;28;20038;-81
2023/04/03 07:37:42;;;;;;;3.42;1.55;;;3.50;99.90;;;;;;4978669;28;20047;-81
2023/04/03 07:40:08;;;;;;;5.05;1.00;;;3.00;99.90;;;;;;4961279;28;20050;-80
2023/04/03 07:42:34;;;;;;;3.70;1.20;;;2.70;99.90;;;;;;4961578;28;20049;-80
2023/04/03 07:45:01;;;;;;;3.22;0.82;;;4.10;99.90;;;;;;4978412;28;20408;-78
2023/04/03 07:47:27;;;;;;;2.45;0.98;;;2.60;99.90;;;;;;4978863;28;20055;-79
2023/04/03 07:49:53;;;;;;;4.45;1.23;;;3.00;99.90;;;;;;4961306;28;20055;-81
2023/04/03 07:52:19;;;;;;;2.53;0.95;;;3.30;99.90;;;;;;4978284;28;20102;-78
2023/04/03 07:54:45;;;;;;;2.95;0.80;;;3.70;99.90;;;;;;4960724;28;20106;-77
2023/04/03 07:57:11;;;;;;;9.15;3.70;;;3.80;99.90;;;;;;4960516;28;20053;-75
2023/04/03 07:59:37;;;;;;;2.88;0.93;;;3.90;99.90;;;;;;4978797;28;20058;-75
2023/04/03 08:02:04;;;;;;;3.03;1.00;;;3.20;99.90;;;;;;4960949;28;20046;-75
2023/04/03 08:04:30;;;;;;;10.30;1.85;;;4.10;99.90;;;;;;4978107;28;20046;-76
2023/04/03 08:06:56;;;;;;;2.83;0.80;;;3.70;99.90;;;;;;4978048;28;20062;-74
2023/04/03 08:09:22;;;;;;;2.70;0.90;;;3.80;99.90;;;;;;4978141;28;20047;-75
2023/04/03 08:11:47;;;;;;;3.08;0.70;;;3.90;99.90;;;;;;4977944;28;20133;-76
2023/04/03 08:14:16;;;;;;;2.92;0.82;;;4.20;99.90;;;;;;4978030;28;20120;-74
2023/04/03 08:16:43;;;;;;;2.40;0.90;;;4.10;99.90;;;;;;4978485;28;20130;-78
2023/04/03 08:19:10;;;;;;;3.65;0.70;;;3.70;99.90;;;;;;4977936;28;20051;-80
2023/04/03 08:21:36;;;;;;;3.75;0.80;;;3.90;99.90;;;;;;4960377;28;20133;-76
2023/04/03 08:24:03;;;;;;;2.92;0.80;;;4.00;99.90;;;;;;4960691;28;20441;-77
2023/04/03 08:26:28;;;;;;;3.53;0.70;;;3.80;99.90;;;;;;4977804;28;20057;-75
2023/04/03 08:28:54;;;;;;;1.75;0.80;;;3.70;99.90;;;;;;4977595;28;20047;-75
2023/04/03 08:31:20;;;;;;;2.13;0.80;;;4.00;99.90;;;;;;4977582;28;20043;-77
2023/04/03 08:33:46;;;;;;;1.98;0.98;;;4.20;99.90;;;;;;4960855;28;20436;-76
2023/04/03 08:36:22;;;;;;;2.15;0.63;;;4.20;99.90;;;;;;4944351;28;20481;-76
2023/04/03 08:38:48;;;;;;;1.83;0.70;;;4.40;99.90;;;;;;4977534;28;20059;-75
2023/04/03 08:41:42;;;;;;;3.90;0.80;;;4.00;99.90;;;;;;4978026;28;20058;-75
2023/04/03 08:44:43;;;;;;;1.83;0.90;;;4.30;99.90;;;;;;4974352;28;20121;-76
2023/04/03 08:47:22;;;;;;;2.45;0.70;;;4.70;99.90;;;;;;4977365;28;20051;-80
2023/04/03 08:49:57;;;;;;;3.00;0.85;;;4.30;99.90;;;;;;4961441;28;20050;-77
2023/04/03 08:52:36;;;;;;;1.45;0.73;;;4.20;99.90;;;;;;4977442;28;20046;-78
2023/04/03 08:55:06;;;;;;;2.50;0.70;;;4.70;99.90;;;;;;4976972;28;20062;-81
2023/04/03 08:57:38;;;;;;;1.80;0.50;;;4.50;99.90;;;;;;4977152;28;20090;-80
2023/04/03 09:00:15;;;;;;;0.95;0.85;;;4.60;99.90;;;;;;4960375;28;20042;-80
2023/04/03 09:02:46;;;;;;;2.58;0.60;;;4.60;99.90;;;;;;4944716;28;20418;-79
2023/04/03 09:05:20;;;;;;;2.97;0.50;;;4.70;99.90;;;;;;4977032;28;20520;-79
2023/04/03 09:08:15;;;;;;;2.42;0.55;;;4.70;99.90;;;;;;4977600;28;20054;-79
2023/04/03 09:10:42;;;;;;;4.88;0.50;;;4.70;99.90;;;;;;4974442;28;20149;-79
2023/04/03 09:13:33;;;;;;;3.47;0.60;;;4.80;99.90;;;;;;4976936;28;20050;-78
2023/04/03 09:16:02;;;;;;;2.22;0.60;;;4.80;99.90;;;;;;4976847;28;20047;-78
2023/04/03 09:18:32;;;;;;;1.95;0.70;;;5.20;99.90;;;;;;4959688;28;20370;-79
2023/04/03 09:21:37;;;;;;;1.73;0.57;;;5.30;99.90;;;;;;4976755;28;20054;-77
2023/04/03 09:24:07;;;;;;;3.55;0.40;;;5.00;99.90;;;;;;4976814;28;20082;-78
2023/04/03 09:26:52;;;;;;;2.83;0.60;;;5.20;99.90;;;;;;4959539;28;20047;-80
2023/04/03 09:29:20;;;;;;;0.80;0.50;;;4.50;99.90;;;;;;4977123;28;20121;-81
2023/04/03 09:31:48;;;;;;;1.17;0.45;;;5.50;99.90;;;;;;4959562;28;20050;-79
2023/04/03 09:34:30;;;;;;;1.48;0.45;;;5.40;99.90;;;;;;4976454;28;20043;-79
2023/04/03 09:37:05;;;;;;;1.25;0.30;;;5.30;99.90;;;;;;4977063;28;20054;-79
2023/04/03 09:39:32;;;;;;;1.05;0.38;;;5.40;99.90;;;;;;4976384;28;20523;-81
2023/04/03 09:42:04;;;;;;;0.98;0.40;;;5.90;99.90;;;;;;4976319;28;20078;-79
2023/04/03 09:44:39;;;;;;;2.70;0.40;;;5.60;99.90;;;;;;4960074;28;20381;-80
2023/04/03 09:47:25;;;;;;;1.38;0.40;;;5.50;99.90;;;;;;4976069;28;20053;-78
2023/04/03 09:50:08;;;;;;;1.27;0.32;;;6.00;99.90;;;;;;4962412;28;20055;-79
2023/04/03 09:52:34;;;;;;;;;;;5.70;99.90;;;;;;4959755;28;20042;-80
2023/04/03 09:55:08;;;;;;;2.20;0.38;;;6.10;99.90;;;;;;4975935;28;19922;-79
2023/04/03 09:57:33;;;;;;;1.02;0.47;;;5.80;99.90;;;;;;4976612;28;20401;-80
2023/04/03 10:00:01;;;;;;;2.55;0.45;;;5.90;99.90;;;;;;4975952;28;20046;-79
2023/04/03 10:02:37;;;;;;;1.00;0.30;;;5.90;99.90;;;;;;4975978;28;20165;-79
2023/04/03 10:05:05;;;;;;;1.30;0.40;;;6.00;99.90;;;;;;4976421;28;20054;-80
2023/04/03 10:07:36;;;;;;;1.45;0.30;;;6.10;99.90;;;;;;4976586;28;20058;-80
2023/04/03 10:10:14;;;;;;;0.55;0.30;;;6.30;99.90;;;;;;4976189;28;20073;-78
2023/04/03 10:12:40;;;;;;;2.70;0.47;;;6.40;99.90;;;;;;4975715;28;20078;-79
2023/04/03 10:15:14;;;;;;;3.08;1.08;;;6.10;99.90;;;;;;4975697;28;20275;-79
2023/04/03 10:18:00;;;;;;;2.60;0.40;;;6.20;99.90;;;;;;4958579;28;20047;-79
2023/04/03 10:20:43;;;;;;;0.55;0.30;;;6.60;99.90;;;;;;4975843;28;20481;-79
2023/04/03 10:23:27;;;;;;;1.50;0.38;;;6.30;99.90;;;;;;4958749;28;20145;-79
2023/04/03 10:26:10;;;;;;;;;;;6.50;99.90;;;;;;4976335;28;20100;-78
2023/04/03 10:28:44;;;;;;;0.40;0.20;;;6.30;99.90;;;;;;4975420;28;19990;-80
2023/04/03 10:31:57;;;;;;;1.10;0.30;;;6.50;99.90;;;;;;4975458;28;20129;-79
2023/04/03 10:34:35;;;;;;;0.55;0.30;;;6.60;99.90;;;;;;4957551;28;20058;-79
2023/04/03 10:37:28;;;;;;;1.02;0.20;;;6.60;99.90;;;;;;4975259;28;20062;-79
2023/04/03 10:40:00;;;;;;;0.45;0.20;;;6.70;99.90;;;;;;4975869;28;20046;-79
2023/04/03 10:42:59;;;;;;;0.40;0.20;;;6.60;99.90;;;;;;4975217;28;20175;-79
2023/04/03 10:45:32;;;;;;;2.83;0.30;;;6.60;99.90;;;;;;4958638;28;20616;-79
2023/04/03 10:48:24;;;;;;;0.47;0.30;;;6.70;99.90;;;;;;4958433;28;20179;-81
2023/04/03 10:50:53;;;;;;;1.20;0.40;;;6.90;99.90;;;;;;4976161;28;20172;-81
2023/04/03 10:53:38;;;;;;;1.10;0.20;;;7.10;99.90;;;;;;4975042;28;20038;-79
2023/04/03 10:56:20;;;;;;;0.88;0.30;;;6.90;99.90;;;;;;4957859;28;20054;-79
2023/04/03 10:58:51;;;;;;;0.45;0.25;;;7.10;99.90;;;;;;4975463;28;20061;-78
2023/04/03 11:01:20;;;;;;;0.80;0.20;;;7.30;99.90;;;;;;4974912;28;20058;-81
2023/04/03 11:03:57;;;;;;;1.45;0.30;;;7.10;99.90;;;;;;4974803;28;20042;-78
2023/04/03 11:06:26;;;;;;;1.08;0.30;;;7.40;99.90;;;;;;4974808;28;20481;-78
2023/04/03 11:09:03;;;;;;;0.88;0.25;;;7.30;99.90;;;;;;4974790;28;20055;-78
2023/04/03 11:11:38;;;;;;;1.40;0.20;;;7.30;99.90;;;;;;4974844;28;20134;-82
2023/04/03 11:14:09;;;;;;;0.93;0.22;;;7.10;99.90;;;;;;4957907;28;20129;-80
2023/04/03 11:16:41;;;;;;;0.70;0.28;;;7.20;99.90;;;;;;4974409;28;20497;-79
2023/04/03 11:19:21;;;;;;;1.20;0.32;;;7.30;99.90;;;;;;4975490;28;20378;-79
2023/04/03 11:22:10;;;;;;;3.20;0.30;;;7.20;99.90;;;;;;4974349;28;20492;-80
2023/04/03 11:24:39;;;;;;;1.08;0.30;;;7.50;99.90;;;;;;4974690;28;20042;-80
2023/04/03 11:27:09;;;;;;;0.77;0.30;;;7.40;99.90;;;;;;4974512;28;20548;-79
2023/04/03 11:29:40;;;;;;;1.73;0.30;;;7.30;99.90;;;;;;4958334;28;20055;-79
2023/04/03 11:32:26;;;;;;;1.38;0.40;;;7.30;99.90;;;;;;4974799;28;20378;-80
2023/04/03 11:34:58;;;;;;;0.88;0.20;;;7.50;99.90;;;;;;4962113;28;20138;-78
2023/04/03 11:37:44;;;;;;;2.05;0.38;;;7.50;99.90;;;;;;4962505;28;20046;-78
2023/04/03 11:40:17;;;;;;;0.60;0.20;;;7.70;99.90;;;;;;4976067;28;20121;-79
2023/04/03 11:42:51;;;;;;;1.00;0.30;;;7.80;99.90;;;;;;4974548;28;20047;-80
2023/04/03 11:45:29;;;;;;;0.65;0.30;;;7.70;99.90;;;;;;4974401;28;20058;-80
2023/04/03 11:48:31;;;;;;;0.22;0.20;;;7.60;99.90;;;;;;4941717;28;20055;-77
2023/04/03 11:50:58;;;;;;;1.95;0.30;;;7.70;99.90;;;;;;4975107;28;20050;-79
2023/04/03 11:53:39;;;;;;;0.38;0.20;;;7.80;99.90;;;;;;4975001;28;20066;-81
2023/04/03 11:56:23;;;;;;;0.55;0.32;;;7.80;99.90;;;;;;4957929;28;20097;-83
2023/04/03 11:59:10;;;;;;;0.30;0.30;;;7.90;99.90;;;;;;4974273;28;20054;-80
2023/04/03 12:01:49;;;;;;;0.82;0.40;;;7.90;99.90;;;;;;4974532;28;20050;-79
2023/04/03 12:04:18;;;;;;;1.20;0.30;;;8.00;99.90;;;;;;4974456;28;20047;-80
2023/04/03 12:06:47;;;;;;;0.50;0.30;;;8.00;99.90;;;;;;4942615;28;20054;-79
2023/04/03 12:09:52;;;;;;;0.98;0.30;;;8.20;99.90;;;;;;4957694;28;20046;-78
2023/04/03 12:12:39;;;;;;;1.55;0.30;;;8.00;99.90;;;;;;4989114;28;20125;-86
2023/04/03 12:15:23;;;;;;;1.35;0.40;;;8.10;99.90;;;;;;4970534;28;20050;-81
2023/04/03 12:17:51;;;;;;;0.82;0.30;;;8.10;99.90;;;;;;4978907;28;20047;-80
2023/04/03 12:20:51;;;;;;;0.70;0.30;;;8.00;99.90;;;;;;4978149;28;20134;-84
2023/04/03 12:23:33;;;;;;;0.98;0.30;;;8.10;99.90;;;;;;4978234;28;20396;-82
2023/04/03 12:26:21;;;;;;;1.55;0.38;;;8.20;99.90;;;;;;4960937;28;20058;-82
2023/04/03 12:28:49;;;;;;;0.70;0.25;;;8.20;99.70;;;;;;4978296;28;20051;-83
2023/04/03 12:31:16;;;;;;;0.88;0.32;;;8.20;99.90;;;;;;4977766;28;20082;-84
2023/04/03 12:33:57;;;;;;;0.93;0.30;;;8.10;99.90;;;;;;4944911;28;20471;-81
2023/04/03 12:36:35;;;;;;;3.17;0.60;;;8.30;99.90;;;;;;4977648;28;20058;-81
2023/04/03 12:39:21;;;;;;;1.58;0.40;;;8.30;99.90;;;;;;4977551;28;20093;-82
2023/04/03 12:42:16;;;;;;;0.52;0.40;;;8.40;99.90;;;;;;4945210;28;20469;-80
2023/04/03 12:44:59;;;;;;;1.05;0.30;;;8.50;98.20;;;;;;4960059;28;20118;-80
2023/04/03 12:47:39;;;;;;;1.10;0.33;;;8.40;97.80;;;;;;4977414;28;20082;-81
2023/04/03 12:50:21;;;;;;;1.95;0.30;;;8.60;98.30;;;;;;4978085;28;20043;-80
2023/04/03 12:53:11;;;;;;;0.40;0.20;;;8.60;98.00;;;;;;4977251;28;20054;-81
2023/04/03 12:55:37;;;;;;;0.90;0.30;;;8.30;99.20;;;;;;4977485;28;20066;-81
2023/04/03 12:58:26;;;;;;;1.00;0.40;;;8.30;97.60;;;;;;4977472;28;20066;-83
2023/04/03 13:01:04;;;;;;;0.75;0.30;;;8.60;97.70;;;;;;4977175;28;20039;-82
2023/04/03 13:03:30;;;;;;;2.40;0.40;;;8.60;99.00;;;;;;4977934;28;20043;-82
2023/04/03 13:06:03;;;;;;;0.60;0.30;;;8.50;99.00;;;;;;4977834;28;20050;-83
2023/04/03 13:08:30;;;;;;;0.88;0.32;;;8.50;99.00;;;;;;4977638;28;20046;-80
2023/04/03 13:11:03;;;;;;;1.38;0.30;;;8.80;99.20;;;;;;4977907;28;20130;-80
2023/04/03 13:13:29;;;;;;;1.50;0.20;;;8.80;98.40;;;;;;4978524;28;20108;-83